Time;durP1;ratioP1;P1;durP2;ratioP2;P2;SDS_P1;SDS_P2;PMS_P1;PMS_P2;Temp;Humidity;BMP_temperature;BMP_pressure;BME280_temperature;BME280_humidity;BME280_pressure;Samples;Min_cycle;Max_cycle;Signal;HPM_P1;HPM_P2
2022/06/17 00:00:53;;;;;;;12.35;5.97;;;12.80;99.90;;;;;;5050141;28;20102;-77
2022/06/17 00:03:20;;;;;;;7.75;5.75;;;12.90;99.90;;;;;;5050092;28;20056;-75
2022/06/17 00:05:46;;;;;;;7.75;5.80;;;12.90;99.90;;;;;;5049994;28;20057;-75
2022/06/17 00:08:35;;;;;;;9.57;5.85;;;12.90;99.90;;;;;;5032168;28;20057;-75
2022/06/17 00:11:01;;;;;;;9.13;6.30;;;12.90;99.90;;;;;;5031980;28;20044;-74
2022/06/17 00:13:27;;;;;;;7.53;5.70;;;13.00;99.90;;;;;;5050285;28;20458;-74
2022/06/17 00:15:53;;;;;;;8.98;5.63;;;12.90;99.90;;;;;;5032650;28;20045;-76
2022/06/17 00:18:20;;;;;;;9.40;5.30;;;12.80;99.90;;;;;;5050098;28;20500;-75
2022/06/17 00:20:48;;;;;;;9.48;5.32;;;12.70;99.90;;;;;;5053824;28;20056;-75
2022/06/17 00:23:16;;;;;;;12.52;6.30;;;12.70;99.90;;;;;;5054001;28;20040;-74
2022/06/17 00:25:45;;;;;;;11.00;6.30;;;12.70;99.90;;;;;;5035730;28;20048;-76
2022/06/17 00:28:17;;;;;;;9.63;5.80;;;12.80;99.90;;;;;;5053727;28;20064;-75
2022/06/17 00:30:43;;;;;;;10.00;6.35;;;12.80;99.90;;;;;;5053717;28;20069;-75
2022/06/17 00:33:09;;;;;;;12.77;6.60;;;12.80;99.90;;;;;;5035583;28;20053;-74
2022/06/17 00:35:41;;;;;;;10.50;5.57;;;12.80;99.90;;;;;;5053771;28;20052;-74
2022/06/17 00:38:12;;;;;;;11.43;7.00;;;12.80;99.90;;;;;;5019548;28;20052;-74
2022/06/17 00:40:38;;;;;;;10.77;6.70;;;12.80;99.90;;;;;;5053342;28;20088;-75
2022/06/17 00:43:17;;;;;;;12.60;7.43;;;12.90;99.90;;;;;;5035489;28;20085;-74
2022/06/17 00:45:49;;;;;;;10.85;7.53;;;13.00;99.90;;;;;;5053331;28;20443;-75
2022/06/17 00:48:23;;;;;;;9.90;7.25;;;12.90;99.90;;;;;;5053399;28;20076;-74
2022/06/17 00:50:55;;;;;;;13.43;8.48;;;12.90;99.90;;;;;;5053221;28;20053;-74
2022/06/17 00:53:24;;;;;;;13.95;7.53;;;12.90;99.90;;;;;;5053107;28;20049;-75
2022/06/17 00:55:52;;;;;;;10.93;7.97;;;13.10;99.90;;;;;;5035258;28;20054;-75
2022/06/17 00:58:22;;;;;;;15.05;8.02;;;13.00;99.90;;;;;;5053097;28;20548;-75
2022/06/17 01:00:53;;;;;;;12.00;8.07;;;13.00;99.90;;;;;;5053441;28;20037;-74
2022/06/17 01:03:29;;;;;;;9.60;7.60;;;13.20;99.90;;;;;;5053169;28;20052;-76
2022/06/17 01:06:01;;;;;;;9.90;7.47;;;13.10;99.90;;;;;;5035393;28;20053;-74
2022/06/17 01:11:25;;;;;;;10.45;7.78;;;13.20;99.90;;;;;;5053012;28;20122;-76
2022/06/17 01:13:52;;;;;;;12.82;8.75;;;13.20;99.90;;;;;;5053004;28;20088;-74
2022/06/17 01:16:23;;;;;;;10.98;7.28;;;13.20;99.90;;;;;;5017611;28;20057;-75
2022/06/17 01:18:50;;;;;;;12.10;7.95;;;13.20;99.90;;;;;;5034822;28;20115;-74
2022/06/17 01:21:36;;;;;;;11.80;8.55;;;13.30;99.90;;;;;;5052529;28;20434;-75
2022/06/17 01:24:02;;;;;;;9.35;7.45;;;13.20;99.90;;;;;;5018071;28;20462;-75
2022/06/17 01:26:28;;;;;;;12.25;6.90;;;13.20;99.90;;;;;;5052629;28;20091;-74
2022/06/17 01:28:54;;;;;;;9.63;7.20;;;13.30;99.90;;;;;;5052504;28;20049;-73
2022/06/17 01:31:22;;;;;;;12.60;7.00;;;13.30;99.90;;;;;;5052144;28;20124;-76
2022/06/17 01:33:47;;;;;;;13.07;7.00;;;13.20;99.90;;;;;;5052439;28;20136;-74
2022/06/17 01:36:21;;;;;;;10.02;6.68;;;13.40;99.90;;;;;;5052198;28;20144;-75
2022/06/17 01:38:50;;;;;;;9.35;7.10;;;13.20;99.90;;;;;;5034720;28;20067;-76
2022/06/17 01:41:19;;;;;;;9.35;7.18;;;13.30;99.90;;;;;;5052337;28;20059;-74
2022/06/17 01:43:55;;;;;;;12.73;7.97;;;13.30;99.90;;;;;;5051985;28;20041;-73
2022/06/17 01:46:25;;;;;;;11.15;7.38;;;13.30;99.90;;;;;;5052092;28;20484;-74
2022/06/17 01:49:08;;;;;;;12.45;7.35;;;13.20;99.90;;;;;;5051848;28;20057;-73
2022/06/17 01:51:38;;;;;;;10.65;6.85;;;13.30;99.90;;;;;;5034442;28;20412;-74
2022/06/17 01:54:23;;;;;;;13.65;6.80;;;13.20;99.90;;;;;;5052341;28;20091;-74
2022/06/17 01:56:52;;;;;;;10.80;6.75;;;13.30;99.90;;;;;;5052383;28;20041;-74
2022/06/17 01:59:27;;;;;;;9.80;6.28;;;13.30;99.90;;;;;;5017400;28;20053;-76
2022/06/17 02:01:55;;;;;;;10.55;6.53;;;13.30;99.90;;;;;;5052326;28;20053;-75
2022/06/17 02:04:26;;;;;;;11.30;7.30;;;13.40;99.90;;;;;;5051887;28;20045;-74
2022/06/17 02:07:00;;;;;;;10.35;6.50;;;13.50;99.90;;;;;;5052277;28;20112;-74
2022/06/17 02:09:26;;;;;;;13.63;7.20;;;13.30;99.90;;;;;;5051886;28;20131;-74
2022/06/17 02:11:53;;;;;;;10.38;6.95;;;13.20;99.90;;;;;;5051629;28;20124;-74
2022/06/17 02:14:20;;;;;;;11.57;6.18;;;13.30;99.90;;;;;;5033746;28;20053;-74
2022/06/17 02:16:53;;;;;;;10.57;6.88;;;13.30;99.90;;;;;;5051552;28;20538;-76
2022/06/17 02:19:23;;;;;;;11.25;6.75;;;13.20;99.90;;;;;;5051715;28;20500;-74
2022/06/17 02:21:59;;;;;;;10.55;6.05;;;13.20;99.90;;;;;;5033905;28;20049;-74
2022/06/17 02:24:26;;;;;;;11.57;6.65;;;13.40;99.90;;;;;;5051525;28;20045;-74
2022/06/17 02:26:53;;;;;;;9.93;6.22;;;13.20;99.90;;;;;;5051449;28;20191;-76
2022/06/17 02:29:20;;;;;;;10.55;6.38;;;13.20;99.90;;;;;;5051453;28;20103;-74
2022/06/17 02:31:46;;;;;;;9.68;6.30;;;13.20;99.90;;;;;;5051338;28;20053;-73
2022/06/17 02:34:15;;;;;;;9.55;6.10;;;13.30;99.90;;;;;;5051561;28;20435;-75
2022/06/17 02:36:54;;;;;;;11.40;6.22;;;13.30;99.90;;;;;;5051697;28;20041;-73
2022/06/17 02:39:20;;;;;;;16.42;6.85;;;13.20;99.90;;;;;;5051623;28;20056;-75
2022/06/17 02:41:48;;;;;;;9.50;6.45;;;13.20;99.90;;;;;;5050894;28;20471;-74
2022/06/17 02:44:25;;;;;;;9.15;6.28;;;13.10;99.90;;;;;;5050853;28;20116;-72
2022/06/17 02:46:54;;;;;;;8.32;5.95;;;13.10;99.90;;;;;;5051238;28;20103;-74
2022/06/17 02:49:30;;;;;;;10.00;5.65;;;13.10;99.90;;;;;;5033022;28;20508;-73
2022/06/17 02:51:57;;;;;;;10.48;5.78;;;13.20;99.90;;;;;;5051053;28;20467;-73
2022/06/17 02:54:42;;;;;;;10.77;5.22;;;13.10;99.90;;;;;;5033296;28;20523;-74
2022/06/17 02:57:09;;;;;;;9.60;6.00;;;13.10;99.90;;;;;;5051112;28;20047;-75
2022/06/17 02:59:44;;;;;;;10.25;6.07;;;13.10;99.90;;;;;;5050523;28;20121;-74
2022/06/17 03:02:33;;;;;;;10.30;6.18;;;13.20;99.90;;;;;;5050836;28;20081;-75
2022/06/17 03:04:59;;;;;;;10.25;5.70;;;13.30;99.90;;;;;;5022404;28;20064;-74
2022/06/17 03:07:29;;;;;;;6.93;5.57;;;13.20;99.90;;;;;;5050887;28;20045;-76
2022/06/17 03:09:55;;;;;;;11.63;6.03;;;13.20;99.90;;;;;;5050968;28;20076;-75
2022/06/17 03:12:27;;;;;;;9.07;5.75;;;13.20;99.90;;;;;;5050727;28;20821;-73
2022/06/17 03:15:02;;;;;;;10.25;6.03;;;13.20;99.90;;;;;;5050273;28;20400;-75
2022/06/17 03:17:29;;;;;;;10.15;6.53;;;13.20;99.90;;;;;;5033144;28;20404;-75
2022/06/17 03:19:56;;;;;;;8.50;5.95;;;13.20;99.90;;;;;;5050735;28;20049;-74
2022/06/17 03:22:24;;;;;;;8.70;6.18;;;13.30;99.90;;;;;;5032766;28;20103;-74
2022/06/17 03:25:02;;;;;;;13.52;6.18;;;13.30;99.90;;;;;;5050613;28;20040;-74
2022/06/17 03:27:40;;;;;;;11.27;5.70;;;13.30;99.90;;;;;;5032331;28;20127;-74
2022/06/17 03:30:06;;;;;;;8.73;5.55;;;13.30;99.90;;;;;;5050616;28;20060;-74
2022/06/17 03:32:43;;;;;;;10.32;5.10;;;13.30;99.90;;;;;;5032190;28;20479;-74
2022/06/17 03:35:20;;;;;;;11.40;5.53;;;13.30;99.90;;;;;;5050484;28;20037;-76
2022/06/17 03:38:03;;;;;;;10.32;5.43;;;13.40;99.90;;;;;;5050337;28;20055;-73
2022/06/17 03:40:36;;;;;;;10.60;5.47;;;13.50;99.90;;;;;;5032521;28;20481;-73
2022/06/17 03:43:09;;;;;;;9.80;5.55;;;13.40;99.90;;;;;;5050284;28;20579;-74
2022/06/17 03:45:47;;;;;;;11.85;5.85;;;13.40;99.90;;;;;;5032615;28;20431;-73
2022/06/17 03:48:40;;;;;;;10.02;5.40;;;13.50;99.90;;;;;;5032085;28;20057;-73
2022/06/17 03:51:13;;;;;;;9.10;5.70;;;13.50;99.90;;;;;;5050390;28;20149;-74
2022/06/17 03:53:41;;;;;;;7.90;5.43;;;13.60;99.90;;;;;;5032437;28;20481;-76
2022/06/17 03:56:17;;;;;;;12.85;4.82;;;13.50;99.90;;;;;;5054289;28;20045;-75
2022/06/17 03:58:45;;;;;;;9.75;5.47;;;13.50;99.90;;;;;;5054303;28;20091;-76
2022/06/17 04:01:20;;;;;;;11.02;5.32;;;13.60;99.90;;;;;;5036057;28;20599;-75
2022/06/17 04:03:52;;;;;;;10.75;5.82;;;13.60;99.90;;;;;;5054096;28;20056;-74
2022/06/17 04:06:22;;;;;;;11.85;5.18;;;13.70;99.90;;;;;;5054201;28;20087;-74
2022/06/17 04:08:55;;;;;;;8.98;5.65;;;13.70;99.90;;;;;;5054000;28;20057;-75
2022/06/17 04:11:23;;;;;;;13.27;5.70;;;13.70;99.90;;;;;;5053943;28;20048;-74
2022/06/17 04:13:51;;;;;;;7.78;5.40;;;13.80;99.90;;;;;;5036233;28;20070;-74
2022/06/17 04:16:31;;;;;;;9.52;5.30;;;13.90;99.90;;;;;;5054179;28;20124;-74
2022/06/17 04:19:15;;;;;;;8.85;5.65;;;13.90;99.90;;;;;;5053776;28;20499;-74
2022/06/17 04:21:41;;;;;;;7.82;4.90;;;13.90;99.90;;;;;;5053925;28;20132;-74
2022/06/17 04:24:16;;;;;;;6.53;4.88;;;13.90;99.90;;;;;;5035498;28;20124;-76
2022/06/17 04:26:43;;;;;;;11.63;5.25;;;14.00;99.90;;;;;;5053812;28;20044;-75
2022/06/17 04:29:19;;;;;;;8.13;5.47;;;14.00;99.90;;;;;;5053587;28;20901;-75
2022/06/17 04:31:57;;;;;;;9.52;5.45;;;14.10;99.90;;;;;;5053784;28;20056;-75
2022/06/17 04:34:23;;;;;;;11.05;5.57;;;14.10;99.90;;;;;;5035920;28;20735;-76
2022/06/17 04:36:53;;;;;;;8.43;5.45;;;14.20;99.90;;;;;;5035428;28;20084;-74
2022/06/17 04:39:38;;;;;;;8.98;5.38;;;14.20;99.90;;;;;;5036057;28;20400;-74
2022/06/17 04:42:27;;;;;;;12.80;5.57;;;14.30;99.90;;;;;;5053852;28;20076;-74
2022/06/17 04:44:53;;;;;;;13.07;6.13;;;14.50;99.90;;;;;;5035441;28;20049;-74
2022/06/17 04:47:20;;;;;;;10.55;6.10;;;14.40;99.90;;;;;;5053266;28;20091;-77
2022/06/17 04:49:53;;;;;;;10.57;6.18;;;14.60;99.90;;;;;;5053041;28;20057;-73
2022/06/17 04:52:18;;;;;;;10.60;5.53;;;14.50;99.90;;;;;;5053354;28;20048;-74
2022/06/17 04:54:44;;;;;;;12.35;5.50;;;14.60;99.90;;;;;;5053395;28;20056;-75
2022/06/17 04:57:11;;;;;;;12.77;5.70;;;14.60;99.90;;;;;;5035473;28;20140;-74
2022/06/17 04:59:44;;;;;;;9.07;5.47;;;15.00;99.90;;;;;;5035498;28;20102;-76
2022/06/17 05:02:27;;;;;;;9.43;5.82;;;14.80;99.90;;;;;;5019133;28;20084;-73
2022/06/17 05:04:57;;;;;;;8.25;5.90;;;14.80;99.90;;;;;;5052318;28;20057;-74
2022/06/17 05:07:24;;;;;;;11.15;5.95;;;14.90;99.90;;;;;;5053191;28;20081;-73
2022/06/17 05:09:57;;;;;;;8.73;5.47;;;15.10;99.90;;;;;;5053056;28;20557;-75
2022/06/17 05:12:27;;;;;;;9.23;6.03;;;15.00;99.90;;;;;;5052908;28;20041;-75
2022/06/17 05:15:07;;;;;;;9.35;6.03;;;15.00;99.90;;;;;;5053079;28;20076;-76
2022/06/17 05:17:34;;;;;;;9.35;5.82;;;15.10;99.90;;;;;;5034838;28;20059;-74
2022/06/17 05:19:59;;;;;;;10.85;6.80;;;15.10;99.90;;;;;;5018355;28;20049;-73
2022/06/17 05:22:25;;;;;;;9.45;6.25;;;15.20;99.90;;;;;;5052788;28;20836;-75
2022/06/17 05:24:51;;;;;;;9.07;6.47;;;15.20;99.90;;;;;;5052792;28;20374;-73
2022/06/17 05:27:16;;;;;;;10.90;6.13;;;15.30;99.90;;;;;;5052505;28;20056;-74
2022/06/17 05:29:42;;;;;;;8.95;5.45;;;15.40;99.90;;;;;;5052762;28;20037;-73
2022/06/17 05:32:12;;;;;;;12.25;6.80;;;15.40;99.90;;;;;;5034796;28;20056;-73
2022/06/17 05:34:38;;;;;;;13.68;6.25;;;15.40;99.90;;;;;;5052221;28;20048;-75
2022/06/17 05:37:03;;;;;;;8.82;6.53;;;15.70;99.90;;;;;;5052581;28;20381;-75
2022/06/17 05:39:29;;;;;;;11.70;6.85;;;15.40;99.90;;;;;;5035044;28;20048;-75
2022/06/17 05:41:55;;;;;;;13.02;7.05;;;15.50;99.90;;;;;;5034409;28;20049;-76
2022/06/17 05:44:20;;;;;;;11.73;6.85;;;15.60;99.90;;;;;;5034730;28;20072;-74
2022/06/17 05:46:47;;;;;;;11.77;7.22;;;15.60;99.90;;;;;;5052365;28;20583;-73
2022/06/17 05:49:13;;;;;;;15.38;7.90;;;15.70;99.90;;;;;;5052151;28;20056;-73
2022/06/17 05:51:40;;;;;;;14.88;7.32;;;15.70;99.90;;;;;;5052146;28;20052;-74
2022/06/17 05:54:05;;;;;;;10.63;7.22;;;15.90;99.90;;;;;;5052217;28;20041;-73
2022/06/17 05:56:31;;;;;;;10.55;6.43;;;15.80;99.90;;;;;;5034193;28;20051;-74
2022/06/17 05:58:57;;;;;;;11.82;7.43;;;15.90;99.90;;;;;;5034395;28;20120;-74
2022/06/17 06:01:22;;;;;;;12.50;7.05;;;16.00;99.90;;;;;;5052095;28;20044;-74
2022/06/17 06:03:48;;;;;;;8.88;7.30;;;15.90;99.90;;;;;;5034139;28;20045;-77
2022/06/17 06:06:13;;;;;;;10.23;6.47;;;16.10;99.90;;;;;;5051758;28;20037;-74
2022/06/17 06:08:39;;;;;;;11.95;7.05;;;16.00;99.90;;;;;;5034068;28;20385;-75
2022/06/17 06:11:06;;;;;;;8.35;5.95;;;16.10;99.90;;;;;;5034260;28;20057;-74
2022/06/17 06:13:32;;;;;;;11.43;6.82;;;16.50;99.90;;;;;;5051794;28;20055;-76
2022/06/17 06:16:00;;;;;;;12.32;6.45;;;16.30;99.90;;;;;;5051708;28;20124;-77
2022/06/17 06:18:32;;;;;;;12.32;6.75;;;16.60;99.90;;;;;;5051267;28;20053;-74
2022/06/17 06:21:00;;;;;;;10.38;6.25;;;16.50;99.90;;;;;;5051698;28;20135;-75
2022/06/17 06:23:25;;;;;;;11.80;6.15;;;16.50;99.90;;;;;;5034090;28;20045;-77
2022/06/17 06:25:51;;;;;;;9.40;5.93;;;16.60;99.90;;;;;;5051514;28;20136;-74
2022/06/17 06:28:20;;;;;;;11.35;6.10;;;16.80;99.90;;;;;;5033571;28;20106;-73
2022/06/17 06:30:54;;;;;;;9.68;6.20;;;16.80;99.90;;;;;;5051484;28;20072;-77
2022/06/17 06:33:20;;;;;;;7.97;5.88;;;16.80;99.90;;;;;;5033545;28;20118;-73
2022/06/17 06:35:46;;;;;;;10.85;5.65;;;16.90;99.90;;;;;;5051104;28;20052;-74
2022/06/17 06:38:12;;;;;;;8.73;5.55;;;17.00;99.90;;;;;;5051354;28;20131;-73
2022/06/17 06:40:38;;;;;;;9.85;6.05;;;17.10;99.90;;;;;;5051204;28;20049;-74
2022/06/17 06:43:12;;;;;;;11.23;5.57;;;17.20;99.90;;;;;;5051003;28;20132;-73
2022/06/17 06:45:37;;;;;;;10.45;6.45;;;17.40;99.90;;;;;;5033564;28;20048;-76
2022/06/17 06:48:07;;;;;;;10.52;6.22;;;17.50;99.90;;;;;;5033243;28;20063;-74
2022/06/17 06:50:34;;;;;;;10.95;6.57;;;17.60;99.90;;;;;;5050932;28;20106;-74
2022/06/17 06:53:00;;;;;;;11.00;5.97;;;17.70;99.90;;;;;;5050911;28;20455;-73
2022/06/17 06:55:26;;;;;;;10.80;6.90;;;17.60;99.90;;;;;;5050938;28;20053;-74
2022/06/17 06:57:58;;;;;;;11.20;6.32;;;17.90;99.90;;;;;;5051076;28;20103;-74
2022/06/17 07:00:30;;;;;;;8.15;6.18;;;18.00;99.90;;;;;;5051140;28;20076;-74
2022/06/17 07:02:55;;;;;;;7.65;5.38;;;18.10;99.90;;;;;;5051074;28;20048;-76
2022/06/17 07:05:21;;;;;;;11.70;5.95;;;18.20;99.90;;;;;;5050957;28;20044;-73
2022/06/17 07:07:47;;;;;;;11.10;5.80;;;18.30;99.90;;;;;;5050587;28;20087;-77
2022/06/17 07:10:22;;;;;;;11.70;5.45;;;18.40;99.90;;;;;;5050841;28;20037;-73
2022/06/17 07:12:48;;;;;;;9.02;5.75;;;18.50;99.90;;;;;;5050920;28;20403;-73
2022/06/17 07:15:14;;;;;;;8.68;5.88;;;18.60;99.90;;;;;;5051154;28;20115;-72
2022/06/17 07:17:45;;;;;;;8.57;5.05;;;18.60;99.90;;;;;;5033234;28;20051;-75
2022/06/17 07:20:11;;;;;;;8.93;5.05;;;18.70;99.90;;;;;;5051025;28;20033;-74
2022/06/17 07:22:38;;;;;;;6.95;4.90;;;18.80;99.90;;;;;;5050580;28;20543;-79
2022/06/17 07:25:04;;;;;;;8.65;5.30;;;19.00;99.90;;;;;;5050770;28;20455;-73
2022/06/17 07:27:30;;;;;;;8.55;5.40;;;19.00;99.90;;;;;;5050732;28;20052;-74
2022/06/17 07:29:55;;;;;;;11.13;5.28;;;19.30;99.90;;;;;;5033266;28;20110;-73
2022/06/17 07:32:21;;;;;;;11.80;5.65;;;19.40;99.90;;;;;;5050824;28;20531;-73
2022/06/17 07:34:46;;;;;;;10.15;5.47;;;19.50;99.90;;;;;;5032977;28;20133;-75
2022/06/17 07:40:00;;;;;;;9.53;5.77;;;19.70;99.90;;;;;;5032696;28;20484;-76
2022/06/17 07:42:37;;;;;;;10.60;5.55;;;19.90;99.90;;;;;;5050869;28;20084;-77
2022/06/17 07:45:05;;;;;;;8.82;5.47;;;20.00;99.90;;;;;;5050806;28;20081;-79
2022/06/17 07:47:30;;;;;;;9.75;5.75;;;20.10;99.90;;;;;;5032862;28;20045;-76
2022/06/17 07:49:56;;;;;;;8.43;5.78;;;20.10;99.90;;;;;;5031667;28;20057;-74
2022/06/17 07:52:22;;;;;;;11.75;5.70;;;20.20;99.90;;;;;;5050340;28;20443;-78
2022/06/17 07:54:47;;;;;;;10.68;5.55;;;20.20;99.90;;;;;;5032428;28;20083;-75
2022/06/17 07:57:13;;;;;;;11.25;5.78;;;20.30;99.90;;;;;;5050534;28;20053;-76
2022/06/17 07:59:39;;;;;;;10.52;5.25;;;20.40;99.90;;;;;;5050478;28;20041;-75
2022/06/17 08:02:05;;;;;;;9.20;5.30;;;20.40;99.90;;;;;;5050290;28;20045;-74
2022/06/17 08:04:32;;;;;;;8.95;5.40;;;20.50;99.90;;;;;;5050276;28;20129;-74
2022/06/17 08:06:58;;;;;;;8.85;5.47;;;20.60;99.90;;;;;;5032102;28;20496;-75
2022/06/17 08:09:24;;;;;;;8.48;4.55;;;20.60;99.90;;;;;;5049758;28;20141;-78
2022/06/17 08:11:51;;;;;;;8.93;4.47;;;20.70;99.90;;;;;;5031907;28;20124;-75
2022/06/17 08:14:17;;;;;;;17.80;5.55;;;20.80;99.90;;;;;;5032236;28;20492;-78
2022/06/17 08:16:43;;;;;;;8.00;4.80;;;21.00;99.90;;;;;;5050133;28;20041;-76
2022/06/17 08:19:09;;;;;;;10.02;4.43;;;21.30;99.90;;;;;;5032078;28;20111;-78
2022/06/17 08:21:35;;;;;;;15.13;5.68;;;21.50;99.90;;;;;;5031901;28;20056;-78
2022/06/17 08:24:01;;;;;;;9.68;4.70;;;21.80;99.90;;;;;;5049964;28;20036;-78
2022/06/17 08:26:27;;;;;;;8.70;4.28;;;21.90;99.90;;;;;;5050075;28;20486;-75
2022/06/17 08:28:53;;;;;;;8.50;4.95;;;22.00;99.90;;;;;;5049898;28;20053;-77
2022/06/17 08:31:18;;;;;;;8.75;4.18;;;22.00;99.90;;;;;;5032105;28;20048;-78
2022/06/17 08:33:45;;;;;;;10.07;4.20;;;22.00;99.90;;;;;;5049930;28;20041;-78
2022/06/17 08:36:17;;;;;;;12.13;4.60;;;22.00;99.90;;;;;;5031651;28;20049;-77
2022/06/17 08:38:47;;;;;;;13.95;5.13;;;22.10;99.90;;;;;;5049785;28;20045;-76
2022/06/17 08:41:27;;;;;;;12.82;4.35;;;22.10;99.90;;;;;;5052327;28;20771;-76
2022/06/17 08:44:28;;;;;;;7.07;4.90;;;22.20;99.90;;;;;;5035536;28;20053;-78
2022/06/17 08:47:06;;;;;;;9.30;4.32;;;22.20;99.90;;;;;;5053250;28;20435;-76
2022/06/17 08:49:59;;;;;;;5.78;3.58;;;22.20;99.90;;;;;;5053178;28;20049;-75
2022/06/17 08:52:55;;;;;;;8.13;4.78;;;22.20;99.90;;;;;;5053472;28;20052;-78
2022/06/17 08:55:33;;;;;;;6.40;4.10;;;22.20;99.90;;;;;;5053180;28;20056;-80
2022/06/17 08:58:23;;;;;;;7.05;4.05;;;22.30;99.90;;;;;;5035406;28;20057;-74
2022/06/17 09:00:59;;;;;;;9.00;3.90;;;22.40;99.90;;;;;;5035351;28;20135;-76
2022/06/17 09:03:49;;;;;;;7.63;4.28;;;22.40;99.90;;;;;;5035485;28;20629;-77
2022/06/17 09:06:49;;;;;;;6.43;3.97;;;22.50;99.90;;;;;;5053236;28;20049;-79
2022/06/17 09:09:36;;;;;;;5.93;3.33;;;22.50;99.90;;;;;;5053065;28;20084;-79
2022/06/17 09:12:21;;;;;;;7.22;3.63;;;22.60;99.90;;;;;;5052484;28;20125;-74
2022/06/17 09:14:53;;;;;;;10.10;4.85;;;22.70;99.90;;;;;;5053271;28;20558;-79
2022/06/17 09:17:47;;;;;;;12.80;5.13;;;22.60;99.90;;;;;;5053091;28;20037;-78
2022/06/17 09:20:19;;;;;;;11.25;5.07;;;22.60;99.90;;;;;;5052844;28;20060;-77
2022/06/17 09:22:54;;;;;;;10.00;5.10;;;22.70;99.90;;;;;;5035022;28;20049;-75
2022/06/17 09:25:28;;;;;;;8.63;4.35;;;22.80;99.90;;;;;;5035015;28;20053;-74
2022/06/17 09:27:56;;;;;;;11.02;4.10;;;22.90;99.90;;;;;;5052750;28;20523;-76
2022/06/17 09:30:35;;;;;;;11.98;4.70;;;23.00;99.90;;;;;;5053001;28;20055;-75
2022/06/17 09:33:12;;;;;;;7.90;4.40;;;23.10;99.90;;;;;;5052220;28;20052;-77
2022/06/17 09:36:22;;;;;;;9.95;4.72;;;23.20;99.90;;;;;;5052698;28;20139;-76
2022/06/17 09:39:07;;;;;;;5.63;3.80;;;23.40;99.90;;;;;;5052643;28;20373;-78
2022/06/17 09:42:18;;;;;;;8.70;4.38;;;23.60;99.90;;;;;;5052193;28;20045;-78
2022/06/17 09:44:52;;;;;;;7.45;4.50;;;23.70;99.90;;;;;;5052435;28;20041;-76
2022/06/17 09:47:37;;;;;;;7.68;3.80;;;23.70;99.90;;;;;;5051765;28;20047;-79
2022/06/17 09:50:09;;;;;;;;;;;23.90;99.90;;;;;;5034620;28;20515;-78
2022/06/17 09:52:40;;;;;;;9.18;4.75;;;23.80;99.90;;;;;;5052408;28;19943;-80
2022/06/17 09:55:21;;;;;;;8.88;4.20;;;23.70;99.90;;;;;;5052302;28;20053;-78
2022/06/17 09:57:54;;;;;;;8.48;4.55;;;23.60;99.90;;;;;;5051955;28;20056;-78
2022/06/17 10:00:23;;;;;;;8.70;4.00;;;23.70;99.90;;;;;;5051914;28;20385;-76
2022/06/17 10:02:57;;;;;;;9.80;4.20;;;23.70;99.90;;;;;;5052109;28;20056;-75
2022/06/17 10:05:48;;;;;;;9.38;4.60;;;23.80;99.90;;;;;;5034304;28;20429;-78
2022/06/17 10:08:32;;;;;;;10.35;4.10;;;23.80;99.90;;;;;;5051980;28;20041;-76
2022/06/17 10:11:16;;;;;;;12.27;4.28;;;23.80;99.90;;;;;;5033973;28;20057;-80
2022/06/17 10:14:17;;;;;;;9.55;4.50;;;23.80;99.90;;;;;;5033493;28;20095;-77
2022/06/17 10:20:22;;;;;;;9.07;4.30;;;23.80;99.90;;;;;;5051901;28;20130;-79
2022/06/17 10:23:31;;;;;;;11.43;4.20;;;23.80;99.90;;;;;;5051586;28;20133;-76
2022/06/17 10:26:06;;;;;;;8.80;4.55;;;23.90;99.90;;;;;;5051783;28;20048;-75
2022/06/17 10:28:43;;;;;;;6.47;4.03;;;24.00;99.90;;;;;;5051279;28;20423;-75
2022/06/17 10:31:32;;;;;;;12.38;5.15;;;24.10;99.90;;;;;;5051533;28;20045;-77
2022/06/17 10:34:01;;;;;;;11.00;4.63;;;24.10;99.90;;;;;;5051243;28;20056;-79
2022/06/17 10:36:28;;;;;;;12.20;5.25;;;24.20;99.90;;;;;;5051442;28;20053;-79
2022/06/17 10:38:54;;;;;;;9.73;5.10;;;24.20;99.90;;;;;;5051492;28;20048;-79
2022/06/17 10:41:20;;;;;;;9.02;5.05;;;24.30;99.90;;;;;;5051336;28;20051;-78
2022/06/17 10:43:51;;;;;;;11.90;6.07;;;24.20;99.90;;;;;;5050848;28;20055;-80
2022/06/17 10:46:23;;;;;;;12.00;5.40;;;24.30;99.90;;;;;;5051232;28;20052;-77
2022/06/17 10:49:18;;;;;;;7.97;5.43;;;24.30;99.90;;;;;;5050842;28;20155;-78
2022/06/17 10:51:47;;;;;;;11.07;6.83;;;24.50;99.90;;;;;;5051291;28;20057;-78
2022/06/17 10:54:27;;;;;;;12.48;5.45;;;24.60;99.90;;;;;;5051152;28;20041;-78
2022/06/17 10:57:10;;;;;;;13.15;5.72;;;24.70;99.90;;;;;;5033179;28;20049;-77
2022/06/17 10:59:38;;;;;;;10.98;5.82;;;24.70;99.90;;;;;;5050796;28;20045;-77
2022/06/17 11:02:21;;;;;;;10.00;5.90;;;24.90;99.90;;;;;;5033336;28;20049;-76
2022/06/17 11:04:54;;;;;;;9.07;5.65;;;25.00;99.90;;;;;;5050793;28;20036;-78
2022/06/17 11:07:31;;;;;;;7.80;5.53;;;24.90;99.90;;;;;;5050717;28;20060;-79
2022/06/17 11:10:27;;;;;;;14.70;5.95;;;24.90;99.90;;;;;;5032760;28;20049;-77
2022/06/17 11:13:04;;;;;;;10.90;5.47;;;25.00;99.90;;;;;;4988896;28;20069;-77
2022/06/17 11:15:39;;;;;;;9.55;5.82;;;25.00;99.90;;;;;;4972442;28;20054;-80
2022/06/17 11:18:08;;;;;;;7.30;4.93;;;25.00;99.90;;;;;;4988873;28;20085;-77
2022/06/17 11:20:37;;;;;;;8.45;5.35;;;25.10;99.90;;;;;;4989154;28;20141;-79
2022/06/17 11:23:15;;;;;;;9.50;5.15;;;25.10;99.90;;;;;;4972860;28;20050;-83
2022/06/17 11:25:42;;;;;;;9.63;4.63;;;25.30;99.90;;;;;;4988866;28;20105;-79
2022/06/17 11:28:29;;;;;;;8.07;4.93;;;25.50;99.90;;;;;;4988853;28;20050;-74
2022/06/17 11:31:01;;;;;;;13.02;5.18;;;25.60;99.90;;;;;;4988632;28;20065;-80
2022/06/17 11:33:32;;;;;;;16.70;4.95;;;25.80;99.90;;;;;;4988886;28;20050;-74
2022/06/17 11:36:16;;;;;;;12.50;4.57;;;26.00;99.90;;;;;;4988764;28;20097;-77
2022/06/17 11:38:43;;;;;;;6.97;4.47;;;26.30;99.60;;;;;;4988880;28;20046;-79
2022/06/17 11:41:09;;;;;;;10.10;4.65;;;26.40;98.90;;;;;;4972424;28;20046;-78
2022/06/17 11:43:41;;;;;;;15.70;4.13;;;26.50;98.70;;;;;;4972882;28;20050;-79
2022/06/17 11:46:12;;;;;;;11.02;4.28;;;26.50;99.00;;;;;;4988792;28;20048;-74
2022/06/17 11:48:40;;;;;;;11.15;4.30;;;26.60;97.70;;;;;;4990567;28;20456;-78
2022/06/17 11:51:08;;;;;;;7.38;4.28;;;26.60;98.40;;;;;;5069780;28;20147;-79
2022/06/17 11:53:43;;;;;;;8.75;4.40;;;26.80;98.10;;;;;;5052214;28;20106;-80
2022/06/17 11:56:10;;;;;;;11.10;4.35;;;26.90;97.50;;;;;;5070522;28;20041;-79
2022/06/17 11:58:56;;;;;;;14.02;4.80;;;27.00;97.20;;;;;;5070449;28;20052;-79
2022/06/17 12:01:21;;;;;;;10.82;4.47;;;27.00;97.30;;;;;;5070054;28;20044;-80
2022/06/17 12:03:47;;;;;;;6.32;3.53;;;26.90;97.00;;;;;;5070319;28;20101;-77
2022/06/17 12:06:25;;;;;;;7.15;3.80;;;27.00;97.40;;;;;;5069981;28;20404;-75
2022/06/17 12:09:01;;;;;;;7.57;3.75;;;27.10;97.00;;;;;;5052252;28;20060;-80
2022/06/17 12:11:35;;;;;;;7.07;3.85;;;27.30;97.00;;;;;;5052495;28;20496;-77
2022/06/17 12:14:10;;;;;;;10.80;3.88;;;27.50;97.30;;;;;;5070322;28;20123;-80
2022/06/17 12:16:39;;;;;;;9.43;4.03;;;27.60;96.80;;;;;;5073433;28;20044;-82
2022/06/17 12:19:11;;;;;;;6.93;3.63;;;27.70;97.00;;;;;;5074041;28;20044;-76
2022/06/17 12:21:51;;;;;;;9.90;3.50;;;27.90;97.30;;;;;;5056261;28;20455;-77
2022/06/17 12:24:46;;;;;;;8.40;3.50;;;28.20;96.50;;;;;;5056341;28;20048;-79
2022/06/17 12:27:37;;;;;;;6.32;3.42;;;28.50;95.50;;;;;;4995210;28;20068;-76
2022/06/17 12:30:11;;;;;;;5.20;3.08;;;28.60;95.30;;;;;;5011689;28;20038;-78
2022/06/17 12:33:10;;;;;;;9.10;3.63;;;28.50;94.60;;;;;;5011431;28;20061;-77
2022/06/17 12:35:48;;;;;;;9.20;2.97;;;28.60;95.10;;;;;;4956618;28;20470;-78
2022/06/17 12:38:49;;;;;;;5.90;2.85;;;28.60;94.00;;;;;;4956629;28;20062;-77
2022/06/17 12:41:57;;;;;;;5.32;2.70;;;28.50;94.40;;;;;;4972328;28;20150;-79
2022/06/17 12:44:47;;;;;;;16.83;2.95;;;28.60;94.60;;;;;;4972269;28;20086;-79
2022/06/17 12:47:27;;;;;;;5.70;2.40;;;28.40;91.50;;;;;;4971849;28;20055;-78
2022/06/17 12:53:24;;;;;;;7.88;2.85;;;28.30;91.20;;;;;;4972237;28;20055;-77
2022/06/17 12:56:15;;;;;;;6.57;2.40;;;28.50;92.30;;;;;;4972064;28;20057;-79
2022/06/17 12:58:58;;;;;;;4.88;2.00;;;28.30;90.30;;;;;;4971895;28;20063;-77
2022/06/17 13:01:41;;;;;;;7.50;2.30;;;28.20;90.60;;;;;;4972009;28;20046;-79
2022/06/17 13:04:13;;;;;;;4.25;2.30;;;28.10;90.10;;;;;;4998655;28;20782;-78
2022/06/17 13:06:52;;;;;;;8.40;2.65;;;28.00;89.90;;;;;;5030860;28;20144;-80
2022/06/17 13:09:46;;;;;;;6.75;2.55;;;27.90;88.60;;;;;;5030646;28;20635;-78
2022/06/17 13:12:25;;;;;;;6.28;2.20;;;27.80;89.00;;;;;;5046621;28;20418;-77
2022/06/17 13:15:07;;;;;;;7.15;2.67;;;27.70;87.50;;;;;;5073072;28;20086;-78
2022/06/17 13:18:02;;;;;;;5.43;2.20;;;27.70;87.80;;;;;;5072357;28;20049;-79
2022/06/17 13:20:35;;;;;;;;;;;27.70;87.70;;;;;;5070059;28;20056;-80
2022/06/17 13:23:07;;;;;;;6.25;2.83;;;27.50;87.60;;;;;;5072976;28;20024;-79
2022/06/17 13:25:44;;;;;;;10.93;2.83;;;27.50;88.70;;;;;;5054482;28;20052;-81